Terminal Aerodrome Forecast
Issued by NWS

Home | Current Version | Previous Version | Graphics & Text | Print | Product List | Glossary On
Versions: 1 2 3 4 5 6 7 8 9 10 11 12 13 14 15 16 17 18 19 20 21 22 23 24 25 26 27 28 29
229
FTUS43 KLOT 270032 AAA
TAFDPA
TAF AMD
KDPA 270032Z 2700/2724 23008KT 6SM BR VCSH OVC012
      TEMPO 2701/2704 3SM -DZRA BR OVC010
     FM270400 24007KT 4SM BR OVC008
     FM270600 25006KT 3SM BR OVC004
     FM271400 05005KT 4SM BR OVC006
     FM271600 06007KT P6SM SCT007 OVC010
      TEMPO 2720/2724 5SM -SHRA BR BKN007=

USA.gov is the U.S. government's official web portal to all federal, state and local government web resources and services.